18:17
Airports
History
Links
Donate
Help keep this website running!
PayPal
Bitcoin
This page is community maintained. The information is intended for PC simulator navigation or reference.
Always use approved charts for navigation.
SIJR
Ely Rego
Ely Rego (SIJR)
Balsa Nova, Parana, Brazil (83650)
4
Lat/Lng:25° 32' 22" S / 49° 36' 0" W
-25.539444 / -49.6
Elevation:2592'ft / 790mMSL
ID / ICAO:SIJR
Runways:1
Longest:12-30
Grass 499m / 1,637ft
Nearby Weather17:00 GMT 2017-10-19
Nearby weather at SBBI, Curitiba Bacacheri located 24.8 nautical miles from SIJR
Altimeter: 30.03
Visibility: 3.1 statute miles
Wind: 15 knots (from 200°)
Temp: 19°c / 66°f
Humidity: 93.9%

METAR: SBBI 191700Z 20015G25KT 5000 -RA BR BKN013 FEW040TCU OVC060 19/18 Q1017

(Powered by phpweather)
Runway 12 / 30
Dimensions:498.9 x 25m 1637' x 82'ft
Surface:Grass
Runway 12 [A]Runway 30 [B]
Heading:102°TH 282°TH
Lat:
Lng:
25° 32' 20.2"S
49° 36' 8.78"W
25° 32' 23.8"S
49° 35' 51.22"W
User Notes and Comments
25° 32' 22" S / 49° 36' 0" W
Distance To
Airport ID:
Nearby Airports
(U) FAZENDA THALIA 5.3 NM
SSTH WNW 284°
4 Max Fontoura 8.6 NM
SSCF NNE 30°
(C) Curitiba Bacacheri 24.8 NM
SBBI ( WX ) ENE 67°
(C) Afonso Pena 26.7 NM
SBCT ( WX ) E 88°
4 Ultraleve Clube de Curitiba 28.1 NM
SSUL E 81°
(U) Piraquara 29.1 NM
SISY ENE 77°
4 Bonacin 34.4 NM
SJQE ENE 75°
VFR Chart
Flight Planning at SkyVector.com